Time;durP1;ratioP1;P1;durP2;ratioP2;P2;SDS_P1;SDS_P2;PMS_P1;PMS_P2;Temp;Humidity;BMP_temperature;BMP_pressure;BME280_temperature;BME280_humidity;BME280_pressure;Samples;Min_cycle;Max_cycle;Signal;HPM_P1;HPM_P2
2023/07/23 00:02:01;;;;;;;4.83;3.73;;;21.90;63.20;;;;;;5025047;28;20447;-68
2023/07/23 00:04:28;;;;;;;6.00;3.57;;;21.90;59.90;;;;;;5023450;28;20456;-67
2023/07/23 00:06:56;;;;;;;8.30;3.10;;;21.80;58.60;;;;;;5024397;28;20451;-68
2023/07/23 00:09:23;;;;;;;5.90;2.80;;;21.80;58.20;;;;;;5024095;28;20491;-68
2023/07/23 00:11:55;;;;;;;8.33;4.00;;;21.80;58.00;;;;;;5023372;28;20505;-68
2023/07/23 00:14:22;;;;;;;5.07;3.57;;;21.80;57.90;;;;;;5025538;28;20467;-68
2023/07/23 00:16:49;;;;;;;7.20;3.23;;;21.80;57.50;;;;;;5031931;28;20443;-68
2023/07/23 00:19:19;;;;;;;5.43;3.70;;;21.70;57.50;;;;;;5028389;28;20443;-68
2023/07/23 00:21:46;;;;;;;3.50;3.20;;;21.70;58.00;;;;;;5027036;28;20554;-67
2023/07/23 00:24:12;;;;;;;5.33;3.57;;;21.70;59.00;;;;;;5025469;28;20451;-68
2023/07/23 00:26:39;;;;;;;6.70;3.00;;;21.70;59.80;;;;;;5024725;28;20459;-68
2023/07/23 00:29:07;;;;;;;7.90;3.23;;;21.70;60.70;;;;;;5024983;28;20479;-68
2023/07/23 00:31:34;;;;;;;5.73;4.00;;;21.70;59.90;;;;;;5024461;28;20467;-68
2023/07/23 00:34:03;;;;;;;8.60;4.33;;;21.70;59.10;;;;;;5024182;28;20456;-67
2023/07/23 00:36:30;;;;;;;10.33;3.83;;;21.80;57.80;;;;;;5025196;28;20458;-68
2023/07/23 00:38:57;;;;;;;7.60;3.83;;;21.80;56.80;;;;;;5022863;28;20439;-68
2023/07/23 00:41:24;;;;;;;5.37;4.23;;;21.70;56.30;;;;;;5023793;28;20463;-67
2023/07/23 00:43:51;;;;;;;4.77;4.03;;;21.70;56.70;;;;;;5024653;28;20470;-67
2023/07/23 00:46:19;;;;;;;5.97;3.60;;;21.70;56.50;;;;;;5020175;28;20447;-68
2023/07/23 00:48:46;;;;;;;11.37;3.97;;;21.70;56.50;;;;;;5015386;28;20483;-69
2023/07/23 00:51:13;;;;;;;6.00;3.93;;;21.60;56.40;;;;;;5016375;28;21027;-69
2023/07/23 00:53:40;;;;;;;6.17;4.23;;;21.60;56.10;;;;;;5023597;28;20861;-70
2023/07/23 00:56:06;;;;;;;4.83;4.00;;;21.60;55.70;;;;;;5015517;28;20951;-69
2023/07/23 00:58:33;;;;;;;6.07;3.77;;;21.60;55.70;;;;;;5014862;28;20455;-69
2023/07/23 01:01:01;;;;;;;6.20;4.50;;;21.50;55.70;;;;;;5014493;28;20495;-69
2023/07/23 01:03:29;;;;;;;5.40;4.20;;;21.50;55.60;;;;;;5014616;28;20447;-69
2023/07/23 01:05:59;;;;;;;9.83;4.40;;;21.40;55.80;;;;;;5014691;28;20458;-70
2023/07/23 01:08:27;;;;;;;6.70;4.17;;;21.40;55.70;;;;;;5014052;28;20442;-68
2023/07/23 01:10:55;;;;;;;5.97;4.33;;;21.40;56.00;;;;;;5014692;28;20475;-69
2023/07/23 01:13:21;;;;;;;13.90;5.27;;;21.30;55.90;;;;;;5014338;28;20471;-69
2023/07/23 01:15:48;;;;;;;5.77;4.13;;;21.30;55.80;;;;;;5014540;28;20451;-69
2023/07/23 01:18:15;;;;;;;6.50;4.47;;;21.30;55.90;;;;;;5014300;28;20215;-69
2023/07/23 01:20:44;;;;;;;4.73;4.27;;;21.30;55.60;;;;;;5014367;28;20471;-69
2023/07/23 01:23:12;;;;;;;6.00;4.50;;;21.30;55.50;;;;;;5013907;28;20440;-69
2023/07/23 01:25:39;;;;;;;5.60;4.77;;;21.20;55.00;;;;;;5014176;28;20454;-69
2023/07/23 01:28:07;;;;;;;5.33;4.83;;;21.20;55.00;;;;;;5014048;28;20451;-69
2023/07/23 01:30:34;;;;;;;6.40;5.07;;;21.20;54.90;;;;;;5014028;28;20495;-69
2023/07/23 01:33:03;;;;;;;6.80;4.90;;;21.10;55.00;;;;;;5014171;28;20826;-69
2023/07/23 01:35:31;;;;;;;6.30;4.80;;;21.10;54.90;;;;;;5014216;28;20823;-69
2023/07/23 01:37:59;;;;;;;4.20;3.80;;;21.00;55.00;;;;;;5013993;28;20506;-69
2023/07/23 01:40:28;;;;;;;7.30;5.67;;;21.10;54.90;;;;;;5014271;28;20466;-69
2023/07/23 01:42:55;;;;;;;6.30;4.63;;;21.00;54.80;;;;;;5017785;28;20439;-69
2023/07/23 01:45:21;;;;;;;6.03;4.97;;;21.00;54.90;;;;;;5018875;28;20455;-69
2023/07/23 01:47:48;;;;;;;8.27;5.10;;;21.00;54.90;;;;;;5014185;28;20458;-69
2023/07/23 01:50:15;;;;;;;5.27;4.80;;;21.00;54.80;;;;;;5013797;28;20487;-69
2023/07/23 01:52:42;;;;;;;4.77;4.20;;;20.90;54.90;;;;;;5013940;28;20460;-69
2023/07/23 01:55:09;;;;;;;5.57;5.00;;;20.90;54.60;;;;;;5013829;28;20844;-69
2023/07/23 01:57:37;;;;;;;5.53;5.03;;;20.90;54.80;;;;;;5013802;28;20458;-69
2023/07/23 02:00:05;;;;;;;4.83;4.33;;;20.80;54.40;;;;;;5013334;28;21008;-69
2023/07/23 02:02:32;;;;;;;5.03;4.50;;;20.80;54.40;;;;;;5013728;28;20454;-69
2023/07/23 02:04:59;;;;;;;4.93;4.53;;;20.80;54.60;;;;;;5013658;28;20463;-69
2023/07/23 02:07:26;;;;;;;6.50;5.03;;;20.80;54.50;;;;;;5012712;28;20517;-69
2023/07/23 02:09:53;;;;;;;8.10;4.63;;;20.80;54.60;;;;;;5014461;28;20486;-69
2023/07/23 02:12:19;;;;;;;4.80;4.30;;;20.80;54.50;;;;;;5013606;28;20451;-69
2023/07/23 02:14:47;;;;;;;5.10;4.53;;;20.80;54.50;;;;;;5015981;28;20459;-69
2023/07/23 02:17:14;;;;;;;8.10;3.90;;;20.80;54.30;;;;;;5016537;28;20463;-69
2023/07/23 02:19:41;;;;;;;5.07;4.47;;;20.80;54.30;;;;;;5020534;28;20518;-69
2023/07/23 02:22:08;;;;;;;5.00;4.60;;;20.80;54.30;;;;;;5019437;28;20451;-69
2023/07/23 02:24:34;;;;;;;5.87;4.93;;;20.70;54.40;;;;;;5017621;28;20450;-69
2023/07/23 02:27:01;;;;;;;5.53;4.10;;;20.70;54.30;;;;;;5017423;28;20474;-69
2023/07/23 02:29:28;;;;;;;6.67;4.53;;;20.70;54.40;;;;;;5017338;28;20574;-69
2023/07/23 02:31:56;;;;;;;4.60;4.20;;;20.80;54.10;;;;;;5021458;28;20455;-69
2023/07/23 02:34:23;;;;;;;4.57;4.10;;;20.80;54.10;;;;;;5028161;28;20443;-69
2023/07/23 02:36:50;;;;;;;7.63;5.03;;;20.70;54.00;;;;;;5024182;28;20944;-69
2023/07/23 02:39:17;;;;;;;5.47;4.97;;;20.70;54.00;;;;;;5018728;28;20537;-69
2023/07/23 02:41:44;;;;;;;5.50;4.27;;;20.70;54.10;;;;;;5017326;28;20466;-69
2023/07/23 02:44:12;;;;;;;4.33;3.93;;;20.70;54.20;;;;;;5016031;28;20454;-69
2023/07/23 02:46:38;;;;;;;4.33;3.93;;;20.70;54.00;;;;;;5017373;28;20470;-69
2023/07/23 02:49:06;;;;;;;5.80;4.23;;;20.70;54.20;;;;;;5017204;28;20487;-69
2023/07/23 02:51:33;;;;;;;6.57;4.67;;;20.70;54.20;;;;;;5015932;28;20463;-69
2023/07/23 02:54:00;;;;;;;4.57;3.87;;;20.70;54.30;;;;;;5017203;28;20458;-69
2023/07/23 02:56:27;;;;;;;5.13;4.63;;;20.70;54.30;;;;;;5017088;28;20450;-69
2023/07/23 02:58:54;;;;;;;6.30;4.50;;;20.70;54.30;;;;;;5017105;28;20447;-69
2023/07/23 03:01:21;;;;;;;6.20;4.93;;;20.70;54.30;;;;;;5016972;28;20471;-69
2023/07/23 03:03:48;;;;;;;7.70;4.87;;;20.70;54.30;;;;;;5017118;28;20824;-69
2023/07/23 03:06:16;;;;;;;5.77;4.50;;;20.60;54.30;;;;;;5016780;28;20983;-69
2023/07/23 03:08:43;;;;;;;6.03;4.80;;;20.70;54.40;;;;;;5016812;28;20475;-69
2023/07/23 03:11:10;;;;;;;5.20;4.30;;;20.70;54.30;;;;;;5023196;28;20491;-69
2023/07/23 03:13:37;;;;;;;5.90;4.27;;;20.70;54.40;;;;;;5018812;28;20459;-69
2023/07/23 03:16:04;;;;;;;4.73;4.30;;;20.70;54.60;;;;;;5016695;28;20443;-69
2023/07/23 03:18:30;;;;;;;4.93;4.37;;;20.70;54.50;;;;;;5016685;28;20454;-69
2023/07/23 03:20:57;;;;;;;7.63;4.57;;;20.70;54.60;;;;;;5016535;28;20471;-69
2023/07/23 03:23:26;;;;;;;5.87;5.00;;;20.70;54.60;;;;;;5016077;28;20948;-69
2023/07/23 03:25:52;;;;;;;5.20;4.70;;;20.70;54.60;;;;;;5016302;28;20459;-69
2023/07/23 03:28:19;;;;;;;5.30;4.80;;;20.70;54.50;;;;;;5016029;28;20497;-69
2023/07/23 03:30:46;;;;;;;5.23;4.20;;;20.70;54.70;;;;;;5016193;28;20491;-69
2023/07/23 03:33:12;;;;;;;5.70;4.20;;;20.70;54.30;;;;;;5016309;28;20451;-69
2023/07/23 03:35:41;;;;;;;5.10;4.30;;;20.70;54.40;;;;;;5016149;28;20455;-69
2023/07/23 03:38:07;;;;;;;4.93;3.93;;;20.70;54.30;;;;;;5015754;28;20949;-69
2023/07/23 03:40:35;;;;;;;5.50;4.13;;;20.70;54.50;;;;;;5016177;28;20474;-69
2023/07/23 03:43:02;;;;;;;7.33;4.03;;;20.70;54.30;;;;;;5014507;28;20944;-69
2023/07/23 03:45:29;;;;;;;6.40;3.83;;;20.70;54.20;;;;;;5015957;28;20444;-69
2023/07/23 03:47:56;;;;;;;5.27;3.90;;;20.60;53.70;;;;;;5016075;28;20817;-69
2023/07/23 03:50:22;;;;;;;4.50;3.87;;;20.70;53.80;;;;;;5015656;28;20491;-69
2023/07/23 03:52:49;;;;;;;6.33;3.80;;;20.70;53.70;;;;;;5015881;28;20448;-69
2023/07/23 03:55:16;;;;;;;8.43;4.90;;;20.70;53.70;;;;;;5015729;28;20483;-69
2023/07/23 03:57:44;;;;;;;5.17;4.57;;;20.70;53.80;;;;;;5015735;28;20447;-68
2023/07/23 04:00:12;;;;;;;4.60;3.43;;;20.70;53.40;;;;;;5015690;28;20470;-69
2023/07/23 04:02:41;;;;;;;6.23;4.07;;;20.80;53.20;;;;;;5015631;28;20443;-69
2023/07/23 04:05:09;;;;;;;4.80;4.10;;;20.80;53.20;;;;;;5019201;28;20452;-68
2023/07/23 04:07:36;;;;;;;7.53;3.37;;;20.80;53.10;;;;;;5024780;28;20448;-68
2023/07/23 04:10:06;;;;;;;4.20;3.80;;;20.90;53.20;;;;;;5023351;28;20483;-67
2023/07/23 04:12:34;;;;;;;6.20;4.07;;;20.90;53.20;;;;;;5024164;28;20447;-68
2023/07/23 04:15:04;;;;;;;5.07;3.50;;;20.90;53.00;;;;;;5023732;28;20488;-68
2023/07/23 04:17:32;;;;;;;6.93;3.30;;;20.90;53.10;;;;;;5023638;28;20439;-68
2023/07/23 04:19:59;;;;;;;5.60;3.83;;;20.90;53.00;;;;;;5023406;28;20471;-67
2023/07/23 04:22:26;;;;;;;3.97;3.10;;;20.90;53.60;;;;;;5023988;28;20447;-68
2023/07/23 04:24:52;;;;;;;4.53;3.27;;;20.90;52.80;;;;;;5024070;28;20459;-68
2023/07/23 04:27:20;;;;;;;12.47;3.73;;;21.00;52.80;;;;;;5024122;28;20444;-67
2023/07/23 04:29:47;;;;;;;6.10;3.30;;;21.00;52.80;;;;;;5024203;28;20514;-67
2023/07/23 04:32:15;;;;;;;11.50;3.60;;;21.00;52.50;;;;;;5022823;28;20459;-68
2023/07/23 04:34:42;;;;;;;4.10;3.17;;;21.00;52.40;;;;;;5023811;28;20455;-67
2023/07/23 04:37:11;;;;;;;4.17;3.00;;;21.00;52.20;;;;;;5023691;28;20454;-68
2023/07/23 04:39:38;;;;;;;7.87;3.27;;;20.90;52.00;;;;;;5024068;28;20443;-67
2023/07/23 04:42:05;;;;;;;3.30;2.60;;;20.90;51.90;;;;;;5023334;28;20463;-67
2023/07/23 04:44:32;;;;;;;3.93;3.30;;;21.00;52.40;;;;;;5022520;28;20459;-68
2023/07/23 04:46:59;;;;;;;3.20;2.37;;;20.90;51.90;;;;;;5024273;28;20448;-68
2023/07/23 04:49:27;;;;;;;4.97;2.93;;;20.90;52.00;;;;;;5030537;28;20501;-68
2023/07/23 04:51:54;;;;;;;6.03;2.80;;;20.80;52.10;;;;;;5032938;28;20447;-67
2023/07/23 04:54:21;;;;;;;6.60;3.00;;;20.80;52.40;;;;;;5028683;28;20448;-68
2023/07/23 04:56:49;;;;;;;4.63;2.70;;;20.90;52.40;;;;;;5026477;28;20456;-68
2023/07/23 04:59:16;;;;;;;3.53;2.30;;;20.90;52.30;;;;;;5025131;28;20444;-68
2023/07/23 05:01:43;;;;;;;8.77;2.90;;;21.00;52.30;;;;;;5025490;28;20986;-67
2023/07/23 05:04:11;;;;;;;9.30;2.90;;;21.00;52.40;;;;;;5025267;28;20443;-67
2023/07/23 05:06:39;;;;;;;5.13;2.40;;;21.00;52.30;;;;;;5024498;28;20479;-68
2023/07/23 05:09:07;;;;;;;11.30;3.20;;;20.90;52.30;;;;;;5030518;28;20452;-68
2023/07/23 05:11:34;;;;;;;5.10;2.60;;;20.90;52.60;;;;;;5025466;28;20491;-67
2023/07/23 05:14:00;;;;;;;8.10;3.07;;;20.90;52.50;;;;;;5014275;28;20828;-69
2023/07/23 05:16:27;;;;;;;10.00;2.97;;;20.90;52.50;;;;;;5014965;28;20439;-68
2023/07/23 05:18:54;;;;;;;4.23;2.90;;;21.00;52.40;;;;;;5014771;28;20497;-68
2023/07/23 05:21:21;;;;;;;4.70;2.33;;;21.00;52.50;;;;;;5014425;28;20479;-68
2023/07/23 05:23:49;;;;;;;3.43;2.93;;;21.00;52.40;;;;;;5013949;28;20455;-69
2023/07/23 05:26:16;;;;;;;5.53;2.67;;;21.10;52.70;;;;;;5014525;28;20450;-68
2023/07/23 05:28:42;;;;;;;9.90;2.53;;;21.10;52.50;;;;;;5021362;28;20450;-68
2023/07/23 05:31:09;;;;;;;9.20;2.63;;;21.10;53.00;;;;;;5016430;28;20499;-69
2023/07/23 05:33:36;;;;;;;7.17;2.80;;;21.20;52.80;;;;;;5013864;28;20945;-69
2023/07/23 05:36:03;;;;;;;14.53;3.10;;;21.20;52.50;;;;;;5014896;28;20440;-68
2023/07/23 05:38:29;;;;;;;5.00;2.20;;;21.20;52.60;;;;;;5013821;28;20455;-69
2023/07/23 05:40:58;;;;;;;3.73;2.80;;;21.20;52.90;;;;;;5012920;28;20463;-69
2023/07/23 05:43:25;;;;;;;3.67;2.30;;;21.20;53.00;;;;;;5014145;28;20458;-68
2023/07/23 05:45:52;;;;;;;5.47;3.10;;;21.20;52.80;;;;;;5014140;28;20451;-68
2023/07/23 05:48:19;;;;;;;3.50;2.70;;;21.20;53.10;;;;;;5013302;28;20447;-69
2023/07/23 05:50:46;;;;;;;13.03;2.67;;;21.20;52.90;;;;;;5014007;28;20593;-69
2023/07/23 05:53:13;;;;;;;7.27;2.87;;;21.20;52.30;;;;;;5013560;28;20452;-68
2023/07/23 05:55:39;;;;;;;5.53;3.13;;;21.10;52.80;;;;;;5013899;28;20444;-69
2023/07/23 05:58:08;;;;;;;5.67;2.60;;;21.20;52.50;;;;;;5013987;28;20451;-69
2023/07/23 06:00:34;;;;;;;3.70;2.90;;;21.20;52.50;;;;;;5013418;28;20506;-69
2023/07/23 06:03:01;;;;;;;5.50;2.53;;;21.20;52.00;;;;;;5014161;28;20497;-69
2023/07/23 06:05:28;;;;;;;4.00;3.20;;;21.20;51.90;;;;;;5013996;28;20458;-69
2023/07/23 06:07:55;;;;;;;5.37;2.80;;;21.20;52.30;;;;;;5015095;28;20455;-69
2023/07/23 06:10:21;;;;;;;2.60;2.40;;;21.30;52.50;;;;;;5016088;28;20487;-69
2023/07/23 06:12:48;;;;;;;6.10;3.00;;;21.40;52.60;;;;;;5016223;28;20456;-69
2023/07/23 06:15:16;;;;;;;10.67;3.40;;;21.30;52.60;;;;;;5016376;28;20447;-68
2023/07/23 06:17:43;;;;;;;8.20;2.80;;;21.40;52.50;;;;;;5016341;28;20451;-69
2023/07/23 06:20:10;;;;;;;4.33;2.97;;;21.40;52.00;;;;;;5017140;28;20471;-69
2023/07/23 06:22:37;;;;;;;4.30;3.03;;;21.50;52.10;;;;;;5015126;28;20443;-69
2023/07/23 06:25:05;;;;;;;3.00;2.70;;;21.50;51.80;;;;;;5014792;28;20972;-69
2023/07/23 06:27:32;;;;;;;6.80;2.73;;;21.50;52.00;;;;;;5015422;28;20462;-69
2023/07/23 06:30:00;;;;;;;5.20;3.50;;;21.50;51.80;;;;;;5015145;28;20475;-69
2023/07/23 06:32:28;;;;;;;4.80;3.03;;;21.50;52.10;;;;;;5013959;28;20448;-69
2023/07/23 06:34:55;;;;;;;4.57;3.37;;;21.50;52.30;;;;;;5014346;28;20462;-69
2023/07/23 06:37:21;;;;;;;8.73;3.50;;;21.60;52.40;;;;;;5014410;28;20534;-69
2023/07/23 06:39:48;;;;;;;4.73;3.53;;;21.60;52.00;;;;;;5013999;28;20467;-69
2023/07/23 06:42:15;;;;;;;5.20;2.77;;;21.70;52.30;;;;;;5012800;28;20447;-68
2023/07/23 06:44:42;;;;;;;5.70;2.83;;;21.70;51.90;;;;;;5013619;28;20451;-69
2023/07/23 06:47:09;;;;;;;4.30;3.20;;;21.70;52.00;;;;;;5013685;28;20479;-68
2023/07/23 06:49:37;;;;;;;4.80;3.50;;;21.70;52.40;;;;;;5013788;28;20448;-69
2023/07/23 06:52:05;;;;;;;7.90;2.40;;;21.70;52.20;;;;;;5013637;28;20483;-69
2023/07/23 06:54:32;;;;;;;3.00;2.73;;;21.70;52.10;;;;;;5013719;28;20458;-69
2023/07/23 06:56:59;;;;;;;3.73;2.60;;;21.70;52.20;;;;;;5013250;28;20988;-69
2023/07/23 06:59:26;;;;;;;8.30;2.73;;;21.70;52.00;;;;;;5013701;28;20948;-68
2023/07/23 07:01:53;;;;;;;7.20;2.70;;;21.80;52.00;;;;;;5017703;28;20449;-68
2023/07/23 07:04:19;;;;;;;4.53;2.90;;;21.80;51.90;;;;;;5017917;28;20454;-68
2023/07/23 07:06:48;;;;;;;3.03;2.70;;;21.80;51.90;;;;;;5021264;28;20443;-69
2023/07/23 07:09:14;;;;;;;3.97;2.63;;;21.90;52.00;;;;;;5025287;28;20455;-69
2023/07/23 07:11:41;;;;;;;3.73;2.90;;;22.00;51.50;;;;;;5021084;28;20596;-69
2023/07/23 07:14:08;;;;;;;7.47;2.77;;;22.10;51.60;;;;;;5018562;28;20964;-68
2023/07/23 07:16:35;;;;;;;2.63;1.77;;;22.20;51.30;;;;;;5017899;28;20455;-69
2023/07/23 07:19:02;;;;;;;5.33;2.47;;;22.30;51.10;;;;;;5017940;28;20581;-69
2023/07/23 07:21:29;;;;;;;5.47;3.13;;;22.30;51.00;;;;;;5017347;28;20464;-68
2023/07/23 07:23:57;;;;;;;7.00;2.60;;;22.20;51.60;;;;;;5016923;28;20448;-69
2023/07/23 07:26:24;;;;;;;11.17;3.30;;;22.10;52.00;;;;;;5017831;28;20527;-70
2023/07/23 07:28:51;;;;;;;8.73;2.60;;;22.00;52.40;;;;;;5016946;28;20447;-69
2023/07/23 07:31:18;;;;;;;9.43;2.60;;;22.00;52.70;;;;;;5017358;28;20630;-69
2023/07/23 07:33:45;;;;;;;7.30;2.70;;;22.00;52.90;;;;;;5017057;28;20447;-69
2023/07/23 07:36:12;;;;;;;7.60;3.03;;;21.90;53.40;;;;;;5016792;28;20447;-69
2023/07/23 07:38:38;;;;;;;13.60;2.50;;;21.90;53.90;;;;;;5016881;28;20444;-69
2023/07/23 07:41:06;;;;;;;12.43;3.33;;;21.70;54.60;;;;;;5017009;28;20503;-68
2023/07/23 07:43:33;;;;;;;10.40;3.37;;;21.50;55.30;;;;;;5020435;28;20462;-68
2023/07/23 07:46:02;;;;;;;19.50;3.60;;;21.30;56.20;;;;;;5017756;28;20878;-69
2023/07/23 07:48:30;;;;;;;11.33;3.17;;;21.10;57.80;;;;;;5016070;28;21007;-68
2023/07/23 07:51:01;;;;;;;7.73;3.60;;;21.00;59.50;;;;;;5015086;28;20487;-69
2023/07/23 07:53:28;;;;;;;20.27;3.20;;;20.70;62.10;;;;;;5016082;28;20455;-69
2023/07/23 07:55:56;;;;;;;12.63;3.30;;;20.60;64.30;;;;;;5016395;28;20546;-69
2023/07/23 07:58:25;;;;;;;12.07;3.13;;;20.50;64.80;;;;;;5023772;28;20443;-69
2023/07/23 08:00:54;;;;;;;8.03;3.17;;;20.40;64.40;;;;;;5019219;28;20463;-69
2023/07/23 08:03:22;;;;;;;3.37;2.40;;;20.30;64.30;;;;;;5016332;28;20482;-70
2023/07/23 08:05:49;;;;;;;5.20;2.87;;;20.30;66.60;;;;;;5015605;28;20851;-69
2023/07/23 08:08:19;;;;;;;5.90;2.70;;;20.20;67.80;;;;;;5015865;28;20455;-69
2023/07/23 08:10:47;;;;;;;4.53;3.10;;;20.30;67.70;;;;;;5015430;28;20506;-69
2023/07/23 08:13:15;;;;;;;3.23;2.33;;;20.40;67.80;;;;;;5015878;28;20494;-69
2023/07/23 08:15:44;;;;;;;6.23;3.43;;;20.30;68.90;;;;;;5016407;28;20446;-73
2023/07/23 08:18:11;;;;;;;3.33;3.00;;;20.40;70.30;;;;;;5015769;28;20448;-70
2023/07/23 08:20:39;;;;;;;4.57;2.97;;;20.30;70.80;;;;;;5015684;28;20543;-70
2023/07/23 08:23:06;;;;;;;5.40;3.07;;;20.30;71.50;;;;;;5016584;28;20964;-70
2023/07/23 08:25:35;;;;;;;7.77;2.83;;;20.40;72.20;;;;;;5015091;28;20443;-70
2023/07/23 08:28:02;;;;;;;4.10;2.50;;;20.50;71.50;;;;;;5015762;28;20454;-70
2023/07/23 08:30:30;;;;;;;2.43;2.23;;;20.50;72.30;;;;;;5015548;28;20467;-70
2023/07/23 08:32:59;;;;;;;8.50;2.50;;;20.70;72.60;;;;;;5015877;28;20455;-70
2023/07/23 08:35:28;;;;;;;3.50;2.87;;;20.70;73.30;;;;;;5015696;28;20809;-70
2023/07/23 08:37:55;;;;;;;3.80;3.50;;;20.70;74.00;;;;;;5015495;28;20444;-69
2023/07/23 08:40:24;;;;;;;2.50;2.30;;;20.80;74.40;;;;;;5015553;28;20514;-69
2023/07/23 08:43:41;;;;;;;4.57;2.67;;;20.70;75.20;;;;;;5014859;28;20936;-69
2023/07/23 08:46:21;;;;;;;4.13;2.40;;;20.80;74.60;;;;;;4989258;28;20462;-70
2023/07/23 08:49:11;;;;;;;3.23;2.90;;;21.00;75.00;;;;;;5015230;28;20472;-69
2023/07/23 08:51:45;;;;;;;3.13;2.83;;;21.10;73.30;;;;;;5010152;28;20995;-69
2023/07/23 08:54:14;;;;;;;6.80;2.87;;;21.20;72.70;;;;;;5015113;28;20435;-69
2023/07/23 08:56:42;;;;;;;2.33;2.13;;;21.20;72.40;;;;;;5014984;28;20448;-69
2023/07/23 08:59:09;;;;;;;3.87;2.50;;;21.10;72.30;;;;;;5014956;28;20447;-70
2023/07/23 09:01:38;;;;;;;2.97;2.77;;;21.10;72.70;;;;;;5014746;28;20466;-69
2023/07/23 09:04:06;;;;;;;6.70;3.07;;;21.20;73.00;;;;;;5014553;28;20447;-70
2023/07/23 09:06:35;;;;;;;4.77;2.57;;;21.00;73.60;;;;;;5014529;28;20451;-70
2023/07/23 09:09:03;;;;;;;3.03;2.73;;;21.10;75.10;;;;;;5014760;28;20451;-70
2023/07/23 09:11:31;;;;;;;4.93;2.50;;;21.10;74.20;;;;;;5014576;28;20491;-70
2023/07/23 09:14:02;;;;;;;10.73;2.70;;;21.10;74.60;;;;;;5014513;28;20464;-70
2023/07/23 09:16:28;;;;;;;3.60;2.60;;;21.10;74.40;;;;;;5019178;28;20466;-70
2023/07/23 09:18:55;;;;;;;6.20;2.40;;;21.00;75.20;;;;;;5023139;28;20449;-69
2023/07/23 09:21:27;;;;;;;4.00;2.43;;;20.90;76.30;;;;;;5017574;28;20468;-70
2023/07/23 09:23:57;;;;;;;2.20;1.80;;;20.90;77.20;;;;;;5016564;28;20447;-70
2023/07/23 09:26:26;;;;;;;4.50;2.90;;;20.90;77.30;;;;;;5016358;28;20440;-70
2023/07/23 09:28:53;;;;;;;4.23;2.10;;;21.00;77.60;;;;;;5014968;28;20497;-70
2023/07/23 09:31:26;;;;;;;5.30;2.83;;;21.10;77.50;;;;;;5013973;28;20526;-70
2023/07/23 09:33:55;;;;;;;3.20;2.40;;;21.20;76.20;;;;;;5015349;28;20941;-70
2023/07/23 09:36:22;;;;;;;5.70;2.00;;;21.20;75.50;;;;;;5016692;28;20459;-69
2023/07/23 09:38:58;;;;;;;6.40;2.03;;;21.20;74.60;;;;;;5015528;28;20543;-69
2023/07/23 09:41:30;;;;;;;13.27;2.53;;;21.20;74.60;;;;;;5014912;28;20897;-70
2023/07/23 09:44:00;;;;;;;13.97;2.77;;;21.20;73.90;;;;;;5014868;28;20466;-69
2023/07/23 09:46:27;;;;;;;4.87;2.30;;;21.20;74.70;;;;;;5014304;28;20522;-69
2023/07/23 09:48:54;;;;;;;5.57;2.03;;;21.20;74.20;;;;;;5013672;28;20458;-70
2023/07/23 09:51:21;;;;;;;8.77;2.60;;;21.30;73.60;;;;;;5015361;28;20848;-70
2023/07/23 09:53:47;;;;;;;4.23;2.30;;;21.30;74.10;;;;;;5019912;28;20447;-70
2023/07/23 09:56:17;;;;;;;11.73;2.70;;;21.20;73.90;;;;;;5014175;28;20455;-70
2023/07/23 09:58:47;;;;;;;12.57;2.87;;;21.30;74.10;;;;;;5014138;28;20452;-69
2023/07/23 10:01:15;;;;;;;6.10;1.80;;;21.30;73.80;;;;;;5013873;28;20506;-69
2023/07/23 10:03:43;;;;;;;5.10;1.90;;;21.50;73.50;;;;;;5013501;28;20975;-69
2023/07/23 10:06:11;;;;;;;11.07;2.47;;;21.50;73.50;;;;;;5013375;28;20463;-69
2023/07/23 10:08:41;;;;;;;3.97;1.70;;;21.50;72.90;;;;;;5014209;28;20447;-69
2023/07/23 10:11:08;;;;;;;5.40;1.63;;;21.60;73.00;;;;;;5013831;28;20502;-70
2023/07/23 10:13:37;;;;;;;7.00;1.90;;;21.70;73.00;;;;;;5013622;28;20510;-70
2023/07/23 10:16:07;;;;;;;4.00;1.50;;;21.80;72.40;;;;;;5014388;28;20856;-68
2023/07/23 10:18:36;;;;;;;4.63;2.20;;;21.90;71.50;;;;;;5013481;28;20822;-69
2023/07/23 10:21:06;;;;;;;3.90;1.70;;;21.80;71.80;;;;;;5013585;28;20463;-69
2023/07/23 10:23:32;;;;;;;4.97;1.93;;;21.90;71.70;;;;;;5013709;28;20458;-70
2023/07/23 10:26:19;;;;;;;8.93;2.27;;;21.70;71.70;;;;;;5015832;28;20450;-69
2023/07/23 10:28:48;;;;;;;10.53;2.47;;;21.80;72.10;;;;;;5013849;28;20455;-70
2023/07/23 10:31:20;;;;;;;12.67;2.37;;;21.70;71.80;;;;;;5013159;28;20467;-69
2023/07/23 10:33:47;;;;;;;10.93;2.10;;;21.70;73.30;;;;;;5013420;28;20490;-69
2023/07/23 10:36:14;;;;;;;17.97;2.87;;;21.90;73.10;;;;;;5016926;28;20526;-69
2023/07/23 10:38:41;;;;;;;10.47;2.20;;;21.90;72.10;;;;;;5017244;28;20455;-70
2023/07/23 10:41:08;;;;;;;13.40;2.50;;;22.00;72.20;;;;;;5016752;28;20979;-69
2023/07/23 10:43:42;;;;;;;24.73;3.37;;;22.00;71.90;;;;;;5017180;28;20501;-69
2023/07/23 10:46:12;;;;;;;15.50;2.13;;;22.00;70.50;;;;;;5018333;28;20493;-69
2023/07/23 10:48:44;;;;;;;29.30;3.13;;;22.10;70.30;;;;;;5022950;28;20535;-69
2023/07/23 10:51:12;;;;;;;12.33;2.30;;;22.20;70.30;;;;;;5021304;28;20475;-69
2023/07/23 10:53:41;;;;;;;5.90;1.53;;;22.20;69.70;;;;;;5017112;28;20443;-69
2023/07/23 10:56:39;;;;;;;7.43;2.10;;;22.20;70.10;;;;;;5016970;28;20447;-69
2023/07/23 10:59:07;;;;;;;6.40;1.83;;;22.20;69.60;;;;;;4956172;29;20533;-69
2023/07/23 11:01:38;;;;;;;18.10;2.60;;;22.10;70.30;;;;;;5003912;28;20487;-69
2023/07/23 11:04:10;;;;;;;7.63;1.87;;;22.10;70.70;;;;;;5016505;28;20439;-69
2023/07/23 11:06:40;;;;;;;7.30;1.93;;;22.00;70.20;;;;;;5016720;28;20588;-69
2023/07/23 11:09:11;;;;;;;8.47;2.03;;;22.00;70.70;;;;;;5016660;28;20493;-69
2023/07/23 11:11:39;;;;;;;20.33;2.87;;;21.90;71.10;;;;;;5016332;28;20555;-69
2023/07/23 11:14:26;;;;;;;38.37;5.00;;;21.90;71.70;;;;;;5016295;28;20455;-69
2023/07/23 11:16:56;;;;;;;13.53;2.37;;;21.80;71.70;;;;;;5016343;28;20442;-69
2023/07/23 11:19:26;;;;;;;21.80;3.73;;;21.70;72.70;;;;;;5016588;28;20455;-69
2023/07/23 11:21:56;;;;;;;4.50;1.80;;;21.70;72.90;;;;;;5016524;28;20447;-69
2023/07/23 11:24:24;;;;;;;7.63;2.10;;;21.90;73.90;;;;;;5016550;28;20447;-70
2023/07/23 11:26:51;;;;;;;12.23;2.13;;;22.00;72.70;;;;;;5022443;28;20439;-69
2023/07/23 11:29:18;;;;;;;14.03;2.30;;;22.10;71.60;;;;;;5024944;28;20448;-69
2023/07/23 11:31:46;;;;;;;22.80;2.50;;;22.20;72.00;;;;;;5020921;28;20501;-69
2023/07/23 11:34:14;;;;;;;11.07;2.50;;;22.20;73.10;;;;;;5018634;28;20455;-69
2023/07/23 11:36:42;;;;;;;19.07;2.67;;;22.30;72.00;;;;;;5017122;28;20450;-70
2023/07/23 11:39:09;;;;;;;15.57;2.03;;;22.30;72.10;;;;;;5016589;28;20459;-69
2023/07/23 11:41:38;;;;;;;11.47;2.20;;;22.30;72.00;;;;;;5016344;28;20545;-69
2023/07/23 11:44:05;;;;;;;23.13;3.50;;;22.20;72.10;;;;;;5016088;28;20456;-69
2023/07/23 11:46:33;;;;;;;14.70;2.47;;;22.20;71.90;;;;;;5014939;28;20451;-69
2023/07/23 11:49:00;;;;;;;5.27;1.63;;;22.20;72.70;;;;;;5016023;28;20486;-69
2023/07/23 11:51:29;;;;;;;8.63;1.60;;;22.10;72.70;;;;;;5016160;28;20509;-69
2023/07/23 11:54:07;;;;;;;7.67;1.70;;;22.10;73.20;;;;;;5015888;28;20509;-69
2023/07/23 11:56:36;;;;;;;7.93;1.63;;;22.10;72.60;;;;;;5015929;28;20490;-69
2023/07/23 11:59:04;;;;;;;10.77;2.40;;;22.00;73.50;;;;;;5015258;28;20983;-70
2023/07/23 12:01:31;;;;;;;5.90;1.80;;;21.90;73.60;;;;;;5014316;28;20981;-69
2023/07/23 12:04:03;;;;;;;6.80;1.90;;;22.00;74.70;;;;;;5018552;28;20454;-69
2023/07/23 12:06:32;;;;;;;9.70;1.93;;;21.90;74.30;;;;;;5019591;28;20466;-69
2023/07/23 12:08:59;;;;;;;5.43;1.53;;;21.80;74.70;;;;;;5015778;28;20447;-69
2023/07/23 12:11:29;;;;;;;11.57;1.83;;;21.80;75.40;;;;;;5015644;28;20474;-69
2023/07/23 12:13:57;;;;;;;6.00;2.00;;;21.80;75.70;;;;;;5014982;28;21016;-69
2023/07/23 12:16:38;;;;;;;12.07;3.10;;;21.90;76.30;;;;;;5015354;28;20466;-70
2023/07/23 12:19:06;;;;;;;2.67;1.80;;;22.00;75.00;;;;;;5015502;28;20438;-69
2023/07/23 12:21:39;;;;;;;7.10;1.43;;;22.10;74.30;;;;;;5014076;28;20468;-69
2023/07/23 12:24:16;;;;;;;11.30;2.43;;;22.10;73.90;;;;;;5015203;28;20967;-69
2023/07/23 12:26:43;;;;;;;4.57;1.50;;;22.10;74.10;;;;;;5014974;28;20913;-69
2023/07/23 12:29:11;;;;;;;6.87;1.57;;;22.10;74.40;;;;;;5015040;28;20952;-69
2023/07/23 12:31:41;;;;;;;5.83;1.70;;;22.10;74.40;;;;;;5013954;28;20494;-69
2023/07/23 12:34:08;;;;;;;10.93;2.60;;;22.00;74.60;;;;;;5015066;28;20545;-69
2023/07/23 12:36:35;;;;;;;6.13;1.60;;;22.10;74.90;;;;;;5015000;28;20451;-69
2023/07/23 12:39:04;;;;;;;5.10;1.30;;;22.10;74.80;;;;;;5013847;28;20506;-69
2023/07/23 12:41:30;;;;;;;11.23;1.80;;;22.00;75.30;;;;;;5014530;28;21023;-69
2023/07/23 12:43:57;;;;;;;16.90;1.70;;;22.00;76.00;;;;;;5014622;28;20451;-69
2023/07/23 12:46:24;;;;;;;10.30;1.70;;;22.10;75.70;;;;;;5014911;28;20463;-69
2023/07/23 12:48:51;;;;;;;6.00;1.27;;;22.20;75.60;;;;;;5020058;28;20944;-69
2023/07/23 12:51:17;;;;;;;5.00;1.47;;;22.30;75.20;;;;;;5024269;28;20470;-69